createdAt,value
2022-08-12T00:00:17.579Z,6.20
2022-08-12T00:03:03.204Z,8.40
2022-08-12T00:06:03.865Z,5.73
2022-08-12T00:08:53.735Z,6.63
2022-08-12T00:11:39.743Z,6.27
2022-08-12T00:14:25.127Z,11.80
2022-08-12T00:17:11.489Z,7.07
2022-08-12T00:19:56.921Z,5.50
2022-08-12T00:22:43.132Z,5.20
2022-08-12T00:26:05.507Z,4.73
2022-08-12T00:28:36.297Z,6.83
2022-08-12T00:31:21.773Z,6.00
2022-08-12T00:34:07.106Z,6.43
2022-08-12T00:36:52.769Z,7.00
2022-08-12T00:39:39.404Z,4.73
2022-08-12T00:42:11.787Z,5.63
2022-08-12T00:44:45.528Z,6.97
2022-08-12T00:47:25.089Z,5.50
2022-08-12T00:49:54.852Z,5.90
2022-08-12T00:52:24.203Z,4.17
2022-08-12T00:54:54.491Z,5.97
2022-08-12T00:57:25.452Z,5.10
2022-08-12T00:59:56.683Z,5.33
2022-08-12T01:02:27.680Z,5.47
2022-08-12T01:05:16.275Z,5.80
2022-08-12T01:08:03.395Z,5.50
2022-08-12T01:10:50.049Z,7.93
2022-08-12T01:13:20.592Z,5.03
2022-08-12T01:15:51.903Z,6.67
2022-08-12T01:18:22.785Z,5.37
2022-08-12T01:21:01.143Z,7.93
2022-08-12T01:23:46.022Z,5.03
2022-08-12T01:26:18.941Z,6.80
2022-08-12T01:28:48.696Z,6.70
2022-08-12T01:31:20.819Z,8.80
2022-08-12T01:33:59.767Z,4.30
2022-08-12T01:36:29.189Z,6.90
2022-08-12T01:39:00.036Z,5.53
2022-08-12T01:41:31.915Z,7.63
2022-08-12T01:44:02.322Z,6.37
2022-08-12T01:46:45.022Z,4.93
2022-08-12T01:49:43.871Z,5.30
2022-08-12T01:52:27.245Z,6.40
2022-08-12T01:54:55.547Z,5.87
2022-08-12T01:57:57.191Z,11.10
2022-08-12T02:00:18.966Z,6.43
2022-08-12T02:02:53.223Z,7.47
2022-08-12T02:05:48.900Z,5.43
2022-08-12T02:08:45.544Z,7.60
2022-08-12T02:11:19.839Z,7.03
2022-08-12T02:14:00.164Z,7.30
2022-08-12T02:16:47.607Z,5.83
2022-08-12T02:19:30.231Z,8.57
2022-08-12T02:22:18.838Z,4.93
2022-08-12T02:24:47.864Z,6.03
2022-08-12T02:27:18.471Z,7.90
2022-08-12T02:29:48.183Z,6.97
2022-08-12T02:32:16.336Z,6.17
2022-08-12T02:34:46.066Z,5.07
2022-08-12T02:37:16.394Z,7.90
2022-08-12T02:39:49.634Z,7.93
2022-08-12T02:42:22.154Z,6.43
2022-08-12T02:44:54.144Z,6.70
2022-08-12T02:47:58.585Z,11.73
2022-08-12T02:50:15.457Z,4.67
2022-08-12T02:52:44.075Z,7.27
2022-08-12T02:55:28.713Z,7.60
2022-08-12T02:58:09.231Z,10.07
2022-08-12T03:00:43.248Z,10.13
2022-08-12T03:03:13.681Z,6.10
2022-08-12T03:05:48.590Z,6.23
2022-08-12T03:08:32.751Z,11.20
2022-08-12T03:11:11.696Z,6.57
2022-08-12T03:13:46.548Z,9.03
2022-08-12T03:16:15.832Z,4.60
2022-08-12T03:18:46.087Z,7.30
2022-08-12T03:21:17.538Z,6.50
2022-08-12T03:24:09.198Z,6.40
2022-08-12T03:26:38.264Z,7.67
2022-08-12T03:29:07.902Z,8.53
2022-08-12T03:31:37.241Z,8.27
2022-08-12T03:34:07.567Z,8.23
2022-08-12T03:36:37.886Z,8.37
2022-08-12T03:39:36.057Z,6.97
2022-08-12T03:42:15.213Z,6.30
2022-08-12T03:45:15.109Z,7.47
2022-08-12T03:48:10.646Z,7.67
2022-08-12T03:50:59.727Z,5.47
2022-08-12T03:53:48.349Z,5.63
2022-08-12T03:56:34.363Z,7.30
2022-08-12T03:59:22.812Z,5.63
2022-08-12T04:01:57.534Z,4.80
2022-08-12T04:04:29.458Z,6.37
2022-08-12T04:06:58.845Z,7.23
2022-08-12T04:09:27.367Z,4.60
2022-08-12T04:12:12.745Z,4.60
2022-08-12T04:14:40.812Z,9.60
2022-08-12T04:17:09.492Z,6.10
2022-08-12T04:19:40.644Z,9.70
2022-08-12T04:22:09.871Z,7.37
2022-08-12T04:24:38.032Z,8.00
2022-08-12T04:27:10.298Z,11.57
2022-08-12T04:30:16.476Z,10.23
2022-08-12T04:32:27.934Z,8.83
2022-08-12T04:34:57.334Z,6.87
2022-08-12T04:37:25.331Z,9.13
2022-08-12T04:39:54.003Z,7.93
2022-08-12T04:42:22.202Z,7.13
2022-08-12T04:44:50.239Z,9.63
2022-08-12T04:47:18.522Z,10.47
2022-08-12T04:49:49.193Z,5.70
2022-08-12T04:52:21.706Z,8.80
2022-08-12T04:54:49.840Z,10.20
2022-08-12T04:57:17.725Z,9.00
2022-08-12T04:59:48.503Z,7.63
2022-08-12T05:02:21.241Z,9.60
2022-08-12T05:04:51.522Z,6.77
2022-08-12T05:07:21.033Z,13.93
2022-08-12T05:09:59.226Z,11.23
2022-08-12T05:12:35.770Z,6.27
2022-08-12T05:15:19.258Z,8.83
2022-08-12T05:17:52.854Z,6.27
2022-08-12T05:20:21.943Z,9.97
2022-08-12T05:22:53.119Z,11.20
2022-08-12T05:25:25.155Z,10.17
2022-08-12T05:27:55.311Z,10.23
2022-08-12T05:30:27.378Z,9.90
2022-08-12T05:33:00.234Z,10.83
2022-08-12T05:35:28.581Z,10.73
2022-08-12T05:38:11.823Z,9.57
2022-08-12T05:40:39.773Z,9.23
2022-08-12T05:43:08.138Z,6.20
2022-08-12T05:45:38.248Z,7.43
2022-08-12T05:48:08.492Z,6.27
2022-08-12T05:50:36.624Z,9.63
2022-08-12T05:53:07.035Z,7.97
2022-08-12T05:55:35.083Z,6.97
2022-08-12T05:58:03.201Z,7.37
2022-08-12T06:00:31.902Z,7.60
2022-08-12T06:03:01.840Z,8.43
2022-08-12T06:05:31.022Z,8.83
2022-08-12T06:08:03.049Z,9.67
2022-08-12T06:10:33.433Z,9.67
2022-08-12T06:13:02.493Z,10.63
2022-08-12T06:15:31.615Z,10.30
2022-08-12T06:18:14.110Z,8.33
2022-08-12T06:20:44.717Z,8.30
2022-08-12T06:23:15.258Z,13.80
2022-08-12T06:25:46.435Z,6.63
2022-08-12T06:28:17.704Z,15.17
2022-08-12T06:31:02.688Z,7.03
2022-08-12T06:33:55.315Z,10.57
2022-08-12T06:36:29.454Z,8.10
2022-08-12T06:38:58.271Z,9.87
2022-08-12T06:42:04.987Z,8.03
2022-08-12T06:44:32.988Z,8.60
2022-08-12T06:47:01.096Z,8.27
2022-08-12T06:49:36.326Z,9.07
2022-08-12T06:52:07.392Z,8.60
2022-08-12T06:54:35.438Z,5.27
2022-08-12T06:58:05.773Z,9.73
2022-08-12T06:59:52.952Z,13.67
2022-08-12T07:02:22.695Z,8.83
2022-08-12T07:04:52.611Z,6.67
2022-08-12T07:07:21.083Z,7.87
2022-08-12T07:10:04.131Z,10.03
2022-08-12T07:12:36.851Z,7.93
2022-08-12T07:15:05.757Z,7.60
2022-08-12T07:17:38.675Z,6.87
2022-08-12T07:20:29.866Z,11.23
2022-08-12T07:22:59.736Z,7.57
2022-08-12T07:25:40.691Z,8.23
2022-08-12T07:28:16.860Z,14.13
2022-08-12T07:30:46.743Z,12.37
2022-08-12T07:33:16.738Z,15.97
2022-08-12T07:35:47.765Z,9.83
2022-08-12T07:38:29.019Z,10.20
2022-08-12T07:41:03.058Z,9.10
2022-08-12T07:43:36.436Z,11.57
2022-08-12T07:46:09.026Z,9.07
2022-08-12T07:48:39.465Z,5.00
2022-08-12T07:51:08.437Z,4.77
2022-08-12T07:53:54.831Z,7.47
2022-08-12T07:56:27.413Z,13.93
2022-08-12T07:58:59.269Z,11.00
2022-08-12T08:01:28.404Z,18.63
2022-08-12T08:04:18.714Z,10.50
2022-08-12T08:06:48.015Z,9.03
2022-08-12T08:09:19.252Z,9.50
2022-08-12T08:12:09.861Z,6.70
2022-08-12T08:14:51.943Z,10.50
2022-08-12T08:17:19.927Z,12.07
2022-08-12T08:20:03.741Z,7.50
2022-08-12T08:22:41.907Z,9.03
2022-08-12T08:25:34.402Z,8.83
2022-08-12T08:28:01.110Z,9.67
2022-08-12T08:30:32.333Z,6.60
2022-08-12T08:33:00.562Z,7.93
2022-08-12T08:35:46.254Z,5.33
2022-08-12T08:38:17.633Z,5.83
2022-08-12T08:42:19.028Z,7.63
2022-08-12T08:44:06.308Z,5.47
2022-08-12T08:46:37.899Z,6.73
2022-08-12T08:49:06.574Z,4.07
2022-08-12T08:51:35.242Z,5.17
2022-08-12T08:54:03.365Z,8.20
2022-08-12T08:56:31.399Z,5.77
2022-08-12T08:58:59.802Z,5.47
2022-08-12T09:01:37.287Z,5.57
2022-08-12T09:05:08.166Z,2.10
2022-08-12T09:07:00.196Z,9.17
2022-08-12T09:10:03.428Z,2.27
2022-08-12T09:12:55.034Z,7.03
2022-08-12T09:15:35.301Z,6.27
2022-08-12T09:18:09.066Z,6.20
2022-08-12T09:20:39.844Z,9.17
2022-08-12T09:23:58.696Z,5.87
2022-08-12T09:26:04.375Z,3.87
2022-08-12T09:28:37.309Z,7.30
2022-08-12T09:32:03.866Z,19.10
2022-08-12T09:34:27.410Z,11.53
2022-08-12T09:36:57.640Z,6.63
2022-08-12T09:40:02.544Z,3.92
2022-08-12T09:42:42.739Z,4.13
2022-08-12T09:45:24.070Z,5.80
2022-08-12T09:48:20.161Z,4.68
2022-08-12T09:50:55.001Z,5.97
2022-08-12T09:53:29.210Z,8.50
2022-08-12T09:56:40.158Z,4.80
2022-08-12T09:58:59.790Z,6.03
2022-08-12T10:01:34.676Z,3.03
2022-08-12T10:04:19.691Z,3.28
2022-08-12T10:06:55.512Z,4.45
2022-08-12T10:09:28.792Z,6.07
2022-08-12T10:12:33.338Z,14.55
2022-08-12T10:15:01.779Z,7.43
2022-08-12T10:17:30.112Z,11.00
2022-08-12T10:19:59.787Z,6.22
2022-08-12T10:22:36.884Z,4.13
2022-08-12T10:26:18.449Z,2.65
2022-08-12T10:28:35.879Z,7.43
2022-08-12T10:31:06.566Z,4.53
2022-08-12T10:34:05.097Z,4.45
2022-08-12T10:36:36.120Z,5.72
2022-08-12T10:40:00.244Z,3.10
2022-08-12T10:42:18.337Z,3.53
2022-08-12T10:45:00.883Z,8.35
2022-08-12T10:48:07.133Z,2.90
2022-08-12T10:50:29.529Z,3.13
2022-08-12T10:53:08.978Z,4.53
2022-08-12T10:55:37.498Z,3.35
2022-08-12T10:58:15.211Z,1.80
2022-08-12T11:03:01.490Z,2.38
2022-08-12T11:04:23.368Z,2.72
2022-08-12T11:07:06.104Z,3.17
2022-08-12T11:09:55.926Z,6.05
2022-08-12T11:12:55.585Z,6.60
2022-08-12T11:14:59.276Z,2.75
2022-08-12T11:17:43.711Z,9.35
2022-08-12T11:20:16.281Z,3.55
2022-08-12T11:22:57.625Z,4.38
2022-08-12T11:25:56.446Z,3.45
2022-08-12T11:28:15.024Z,2.65
2022-08-12T11:30:46.060Z,1.90
2022-08-12T11:33:24.354Z,7.57
2022-08-12T11:36:16.099Z,3.30
2022-08-12T11:38:50.753Z,3.47
2022-08-12T11:41:28.099Z,6.72
2022-08-12T11:44:24.075Z,2.42
2022-08-12T11:46:51.464Z,2.67
2022-08-12T11:49:30.613Z,2.47
2022-08-12T11:52:01.940Z,2.90
2022-08-12T11:54:30.975Z,2.07
2022-08-12T11:57:00.506Z,2.03
2022-08-12T12:02:21.444Z,2.20
2022-08-12T12:04:52.159Z,2.37
2022-08-12T12:07:22.502Z,6.33
2022-08-12T12:09:53.386Z,4.13
2022-08-12T12:12:22.980Z,4.83
2022-08-12T12:14:54.650Z,2.10
2022-08-12T12:17:25.678Z,1.90
2022-08-12T12:19:54.018Z,2.80
2022-08-12T12:22:30.802Z,2.80
2022-08-12T12:24:59.124Z,3.87
2022-08-12T12:28:04.646Z,2.03
2022-08-12T12:30:34.624Z,5.70
2022-08-12T12:33:05.266Z,1.83
2022-08-12T12:36:19.904Z,3.93
2022-08-12T12:38:25.355Z,2.90
2022-08-12T12:40:53.568Z,4.30
2022-08-12T12:43:28.719Z,2.00
2022-08-12T12:46:10.711Z,2.40
2022-08-12T12:48:44.228Z,3.43
2022-08-12T12:51:48.248Z,5.17
2022-08-12T12:54:09.966Z,3.40
2022-08-12T12:56:42.290Z,2.50
2022-08-12T12:59:56.216Z,4.00
2022-08-12T13:02:08.237Z,2.07
2022-08-12T13:04:38.425Z,4.13
2022-08-12T13:07:08.061Z,2.90
2022-08-12T13:09:36.881Z,3.00
2022-08-12T13:12:08.789Z,3.33
2022-08-12T13:14:39.855Z,3.80
2022-08-12T13:17:09.560Z,4.17
2022-08-12T13:19:45.341Z,3.00
2022-08-12T13:22:18.448Z,4.30
2022-08-12T13:24:46.961Z,4.03
2022-08-12T13:27:22.824Z,2.57
2022-08-12T13:30:00.854Z,3.40
2022-08-12T13:32:31.890Z,1.73
2022-08-12T13:35:04.683Z,2.13
2022-08-12T13:37:55.073Z,2.03
2022-08-12T13:40:24.874Z,3.10
2022-08-12T13:42:57.727Z,4.97
2022-08-12T13:45:26.036Z,1.93
2022-08-12T13:47:56.308Z,1.67
2022-08-12T13:50:31.901Z,1.90
2022-08-12T13:53:01.305Z,1.77
2022-08-12T13:55:59.576Z,3.70
2022-08-12T13:58:30.658Z,4.60
2022-08-12T14:00:59.480Z,6.17
2022-08-12T14:03:28.224Z,2.30
2022-08-12T14:06:07.055Z,1.80
2022-08-12T14:08:35.243Z,11.60
2022-08-12T14:11:05.050Z,1.97
2022-08-12T14:14:04.633Z,1.67
2022-08-12T14:16:37.946Z,5.67
2022-08-12T14:19:22.510Z,2.60
2022-08-12T14:22:00.974Z,2.07
2022-08-12T14:24:35.567Z,4.20
2022-08-12T14:27:09.069Z,3.13
2022-08-12T14:30:04.824Z,2.23
2022-08-12T14:32:35.222Z,2.13
2022-08-12T14:35:08.951Z,5.50
2022-08-12T14:37:55.471Z,3.17
2022-08-12T14:40:27.723Z,1.77
2022-08-12T14:42:57.283Z,2.63
2022-08-12T14:45:44.368Z,2.03
2022-08-12T14:48:15.122Z,3.37
2022-08-12T14:51:09.448Z,4.83
2022-08-12T14:59:56.974Z,3.03
2022-08-12T15:02:20.899Z,3.73
2022-08-12T15:04:55.970Z,2.80
2022-08-12T15:07:33.474Z,5.30
2022-08-12T15:10:14.641Z,2.63
2022-08-12T15:12:53.485Z,3.57
2022-08-12T15:15:22.512Z,2.67
2022-08-12T15:17:59.171Z,3.93
2022-08-12T15:20:32.907Z,3.17
2022-08-12T15:23:17.882Z,2.70
2022-08-12T15:26:02.456Z,2.00
2022-08-12T15:28:33.437Z,1.80
2022-08-12T15:31:02.212Z,1.80
2022-08-12T15:33:45.042Z,3.77
2022-08-12T15:36:19.447Z,3.10
2022-08-12T15:39:03.139Z,1.53
2022-08-12T15:41:49.119Z,3.53
2022-08-12T15:44:42.196Z,2.90
2022-08-12T15:47:07.581Z,4.70
2022-08-12T15:49:54.292Z,3.83
2022-08-12T15:52:28.083Z,4.30
2022-08-12T15:54:58.760Z,5.00
2022-08-12T15:57:28.445Z,3.57
2022-08-12T16:00:07.517Z,4.27
2022-08-12T16:02:49.461Z,2.30
2022-08-12T16:06:19.395Z,3.60
2022-08-12T16:08:13.265Z,1.63
2022-08-12T16:10:45.689Z,3.53
2022-08-12T16:13:18.077Z,4.50
2022-08-12T16:16:02.531Z,3.80
2022-08-12T16:18:33.291Z,3.93
2022-08-12T16:21:02.031Z,2.63
2022-08-12T16:23:52.139Z,3.43
2022-08-12T16:26:27.624Z,4.93
2022-08-12T16:29:14.536Z,3.03
2022-08-12T16:31:44.136Z,8.03
2022-08-12T16:34:25.692Z,5.17
2022-08-12T16:37:07.399Z,6.47
2022-08-12T16:40:00.678Z,2.13
2022-08-12T16:42:27.855Z,4.77
2022-08-12T16:44:59.420Z,3.93
2022-08-12T16:47:28.066Z,2.03
2022-08-12T16:49:57.698Z,1.80
2022-08-12T16:52:25.750Z,2.63
2022-08-12T16:54:55.116Z,3.17
2022-08-12T16:57:35.694Z,2.50
2022-08-12T17:00:11.789Z,4.37
2022-08-12T17:02:41.235Z,2.13
2022-08-12T17:05:16.136Z,2.10
2022-08-12T17:07:52.042Z,3.57
2022-08-12T17:10:36.292Z,2.03
2022-08-12T17:13:09.957Z,3.87
2022-08-12T17:15:56.810Z,1.80
2022-08-12T17:18:43.219Z,2.83
2022-08-12T17:21:17.311Z,3.87
2022-08-12T17:23:53.431Z,1.53
2022-08-12T17:26:22.890Z,3.07
2022-08-12T17:28:59.096Z,4.60
2022-08-12T17:32:00.245Z,9.20
2022-08-12T17:34:33.401Z,3.57
2022-08-12T17:37:02.759Z,3.93
2022-08-12T17:40:10.782Z,2.83
2022-08-12T17:42:32.840Z,3.43
2022-08-12T17:45:16.930Z,3.17
2022-08-12T17:48:01.482Z,4.43
2022-08-12T17:50:33.298Z,4.50
2022-08-12T17:53:02.725Z,1.87
2022-08-12T17:55:44.792Z,2.70
2022-08-12T17:58:18.363Z,5.63
2022-08-12T18:00:50.769Z,3.63
2022-08-12T18:04:05.787Z,1.77
2022-08-12T18:06:14.523Z,2.50
2022-08-12T18:08:54.990Z,4.37
2022-08-12T18:12:06.374Z,2.87
2022-08-12T18:14:30.163Z,3.67
2022-08-12T18:17:01.050Z,4.97
2022-08-12T18:20:03.701Z,4.37
2022-08-12T18:22:22.266Z,3.83
2022-08-12T18:26:12.891Z,2.93
2022-08-12T18:28:16.059Z,4.83
2022-08-12T18:30:52.965Z,4.17
2022-08-12T18:33:24.955Z,4.10
2022-08-12T18:35:57.053Z,4.67
2022-08-12T18:38:26.246Z,3.50
2022-08-12T18:41:20.796Z,4.40
2022-08-12T18:44:00.304Z,5.70
2022-08-12T18:46:45.798Z,6.00
2022-08-12T18:49:20.654Z,5.67
2022-08-12T18:51:55.086Z,11.40
2022-08-12T18:54:32.383Z,5.93
2022-08-12T18:57:03.790Z,11.17
2022-08-12T19:00:01.924Z,7.70
2022-08-12T19:02:25.594Z,9.63
2022-08-12T19:04:54.226Z,8.60
2022-08-12T19:07:29.903Z,7.57
2022-08-12T19:10:14.799Z,8.00
2022-08-12T19:13:10.474Z,9.33
2022-08-12T19:15:42.998Z,12.13
2022-08-12T19:18:12.457Z,12.13
2022-08-12T19:20:41.758Z,17.63
2022-08-12T19:23:16.674Z,14.40
2022-08-12T19:25:59.749Z,15.40
2022-08-12T19:28:35.587Z,14.53
2022-08-12T19:31:57.241Z,14.10
2022-08-12T19:37:26.685Z,15.70
2022-08-12T19:40:09.686Z,17.87
2022-08-12T19:43:00.655Z,15.30
2022-08-12T19:45:43.854Z,14.73
2022-08-12T19:48:18.718Z,17.70
2022-08-12T19:50:50.339Z,15.43
2022-08-12T19:53:23.059Z,18.33
2022-08-12T19:55:55.152Z,17.17
2022-08-12T19:58:24.097Z,20.43
2022-08-12T20:00:54.855Z,16.10
2022-08-12T20:03:38.794Z,14.87
2022-08-12T20:06:15.813Z,13.67
2022-08-12T20:08:55.894Z,14.30
2022-08-12T20:12:11.083Z,14.70
2022-08-12T20:14:18.933Z,15.70
2022-08-12T20:16:52.959Z,16.57
2022-08-12T20:19:52.249Z,11.43
2022-08-12T20:22:24.292Z,12.27
2022-08-12T20:25:01.570Z,10.50
2022-08-12T20:28:04.140Z,14.40
2022-08-12T20:30:52.333Z,10.30
2022-08-12T20:33:19.176Z,13.90
2022-08-12T20:36:06.408Z,13.90
2022-08-12T20:38:42.130Z,8.47
2022-08-12T20:41:16.558Z,7.30
2022-08-12T20:43:50.320Z,9.33
2022-08-12T20:46:19.388Z,8.37
2022-08-12T20:48:54.901Z,9.97
2022-08-12T20:51:27.686Z,6.00
2022-08-12T20:53:59.285Z,5.23
2022-08-12T20:56:34.565Z,7.10
2022-08-12T20:59:06.672Z,7.63
2022-08-12T21:01:46.902Z,3.63
2022-08-12T21:04:35.270Z,4.17
2022-08-12T21:07:08.415Z,4.97
2022-08-12T21:09:40.924Z,8.10
2022-08-12T21:12:28.783Z,4.07
2022-08-12T21:15:23.354Z,6.20
2022-08-12T21:18:09.297Z,3.43
2022-08-12T21:20:42.081Z,2.43
2022-08-12T21:23:10.017Z,2.30
2022-08-12T21:25:45.599Z,4.23
2022-08-12T21:28:15.561Z,5.90
2022-08-12T21:31:11.262Z,3.50
2022-08-12T21:33:58.359Z,6.63
2022-08-12T21:36:32.090Z,3.30
2022-08-12T21:39:01.381Z,2.27
2022-08-12T21:41:51.022Z,4.47
2022-08-12T21:44:24.324Z,5.30
2022-08-12T21:47:20.530Z,2.30
2022-08-12T21:50:02.284Z,1.90
2022-08-12T21:52:34.990Z,3.23
2022-08-12T21:55:18.861Z,2.97
2022-08-12T21:57:54.025Z,3.43
2022-08-12T22:00:34.234Z,4.57
2022-08-12T22:04:01.365Z,1.90
2022-08-12T22:06:30.427Z,2.03
2022-08-12T22:09:15.976Z,6.50
2022-08-12T22:11:49.278Z,3.23
2022-08-12T22:14:28.909Z,5.53
2022-08-12T22:16:58.099Z,6.17
2022-08-12T22:19:27.434Z,2.47
2022-08-12T22:21:58.784Z,4.67
2022-08-12T22:24:31.944Z,7.17
2022-08-12T22:27:07.946Z,6.67
2022-08-12T22:30:03.695Z,4.93
2022-08-12T22:32:31.630Z,3.47
2022-08-12T22:35:22.279Z,5.60
2022-08-12T22:37:53.446Z,4.53
2022-08-12T22:40:24.075Z,1.40
2022-08-12T22:43:15.399Z,4.50
2022-08-12T22:46:01.481Z,5.20
2022-08-12T22:48:30.677Z,5.13
2022-08-12T22:51:00.231Z,1.80
2022-08-12T22:53:35.892Z,5.40
2022-08-12T22:56:07.935Z,1.83
2022-08-12T22:58:40.489Z,6.27
2022-08-12T23:01:10.905Z,3.83
2022-08-12T23:03:48.115Z,4.30
2022-08-12T23:06:20.168Z,3.23
2022-08-12T23:08:49.817Z,4.10
2022-08-12T23:11:23.724Z,1.40
2022-08-12T23:13:57.093Z,3.23
2022-08-12T23:16:31.802Z,1.50
2022-08-12T23:19:09.872Z,2.33
2022-08-12T23:22:05.322Z,4.47
2022-08-12T23:24:41.069Z,4.03
2022-08-12T23:27:51.159Z,2.53
2022-08-12T23:30:24.796Z,6.87
2022-08-12T23:33:00.613Z,3.13
2022-08-12T23:35:53.752Z,3.30
2022-08-12T23:38:30.509Z,3.37
2022-08-12T23:40:59.679Z,2.30
2022-08-12T23:43:39.207Z,2.47
2022-08-12T23:46:09.232Z,4.43
2022-08-12T23:48:37.580Z,4.03
2022-08-12T23:51:21.616Z,7.40
2022-08-12T23:53:55.278Z,3.07
2022-08-12T23:56:24.634Z,2.30
2022-08-12T23:58:57.606Z,3.07
